Time;durP1;ratioP1;P1;durP2;ratioP2;P2;SDS_P1;SDS_P2;PMS_P1;PMS_P2;Temp;Humidity;BMP_temperature;BMP_pressure;BME280_temperature;BME280_humidity;BME280_pressure;Samples;Min_cycle;Max_cycle;Signal;HPM_P1;HPM_P2
2022/07/06 00:01:34;;;;;;;;;;;;;;;;;;5002907;28;20113;-88
2022/07/06 00:03:59;;;;;;;;;;;;;;;;;;5019924;28;20291;-87
2022/07/06 00:06:25;;;;;;;;;;;;;;;;;;4969320;28;19923;-87
2022/07/06 00:08:51;;;;;;;;;;;;;;;;;;4988970;28;19960;-84
2022/07/06 00:11:16;;;;;;;;;;;;;;;;;;5025156;28;19940;-87
2022/07/06 00:13:41;;;;;;;;;;;;;;;;;;4986986;28;20344;-86
2022/07/06 00:16:07;;;;;;;;;;;;;;;;;;5005108;28;19917;-84
2022/07/06 00:18:32;;;;;;;;;;;;;;;;;;4992605;28;20383;-86
2022/07/06 00:20:58;;;;;;;;;;;;;;;;;;4998545;28;20416;-85
2022/07/06 00:23:23;;;;;;;;;;;;;;;;;;5017554;28;19980;-87
2022/07/06 00:25:49;;;;;;;;;;;;;;;;;;4984210;28;19914;-87
2022/07/06 00:28:14;;;;;;;;;;;;;;;;;;5031308;28;19914;-86
2022/07/06 00:30:39;;;;;;;;;;;;;;;;;;5030423;28;20411;-86
2022/07/06 00:33:05;;;;;;;;;;;;;;;;;;5033758;28;19913;-86
2022/07/06 00:35:30;;;;;;;;;;;;;;;;;;5027483;28;19917;-87
2022/07/06 00:37:56;;;;;;;;;;;;;;;;;;5008007;28;19957;-85
2022/07/06 00:40:21;;;;;;;;;;;;;;;;;;5027197;28;19914;-87
2022/07/06 00:42:46;;;;;;;;;;;;;;;;;;5009771;28;19914;-84
2022/07/06 00:45:12;;;;;;;;;;;;;;;;;;5008043;28;19913;-86
2022/07/06 00:47:37;;;;;;;;;;;;;;;;;;5007884;28;19918;-85
2022/07/06 00:50:17;;;;;;;;;;;;;;;;;;4990212;28;20287;-86
2022/07/06 00:52:43;;;;;;;;;;;;;;;;;;5009854;28;19921;-87
2022/07/06 00:55:08;;;;;;;;;;;;;;;;;;5025152;28;19921;-89
2022/07/06 00:57:34;;;;;;;;;;;;;;;;;;4966619;28;20364;-87
2022/07/06 00:59:59;;;;;;;;;;;;;;;;;;4998509;28;19921;-85
2022/07/06 01:02:24;;;;;;;;;;;;;;;;;;4967140;28;20288;-87
2022/07/06 01:04:50;;;;;;;;;;;;;;;;;;5018524;28;19914;-87
2022/07/06 01:07:15;;;;;;;;;;;;;;;;;;5003776;28;19920;-87
2022/07/06 01:09:44;;;;;;;;;;;;;;;;;;4971543;28;19925;-87
2022/07/06 01:15:10;;;;;;;;;;;;;;;;;;4592031;26;19910;-94
2022/07/06 01:21:24;;;;;;;;;;;;;;;;;;5244249;23;19930;-92
2022/07/06 01:23:56;;;;;;;;;;;;;;;;;;4980798;28;19929;-92
2022/07/06 01:27:05;;;;;;;;;;;;;;;;;;4965541;28;19914;-92
2022/07/06 01:29:36;;;;;;;;;;;;;;;;;;4980410;28;19914;-94
2022/07/06 01:32:40;;;;;;;;;;;;;;;;;;4983686;28;20447;-92
2022/07/06 01:36:26;;;;;;;;;;;;;;;;;;;;;
2022/07/06 01:41:50;;;;;;;;;;;;;;;;;;5029668;23;19930;-93
2022/07/06 01:44:54;;;;;;;;;;;;;;;;;;4975135;28;19914;-93
2022/07/06 01:50:49;;;;;;;;;;;;;;;;;;4999171;28;19929;-93
2022/07/06 01:53:29;;;;;;;;;;;;;;;;;;4998355;28;19914;-94
2022/07/06 01:56:49;;;;;;;;;;;;;;;;;;4920974;29;19934;-92
2022/07/06 01:59:35;;;;;;;;;;;;;;;;;;4920059;29;19915;-93
2022/07/06 02:02:42;;;;;;;;;;;;;;;;;;4914480;29;19915;-93
2022/07/06 02:06:02;;;;;;;;;;;;;;;;;;4909123;29;19922;-93
2022/07/06 02:09:00;;;;;;;;;;;;;;;;;;4953345;28;19925;-93
2022/07/06 02:11:43;;;;;;;;;;;;;;;;;;4997170;28;19909;-92
2022/07/06 02:14:51;;;;;;;;;;;;;;;;;;4997743;28;20144;-92
2022/07/06 02:20:40;;;;;;;;;;;;;;;;;;;;;
2022/07/06 02:26:39;;;;;;;;;;;;;;;;;;4955753;28;19914;-95
2022/07/06 02:29:20;;;;;;;;;;;;;;;;;;4963712;28;19921;-94
2022/07/06 02:36:11;;;;;;;;;;;;;;;;;;;;;
2022/07/06 02:39:39;;;;;;;;;;;;;;;;;;4962982;29;19961;-94
2022/07/06 02:42:35;;;;;;;;;;;;;;;;;;4944964;29;19906;-93
2022/07/06 02:45:42;;;;;;;;;;;;;;;;;;4975834;28;19915;-92
2022/07/06 02:49:10;;;;;;;;;;;;;;;;;;4978691;28;19929;-92
2022/07/06 02:52:00;;;;;;;;;;;;;;;;;;4960049;29;19906;-92
2022/07/06 02:54:31;;;;;;;;;;;;;;;;;;4960846;29;19914;-94
2022/07/06 02:56:57;;;;;;;;;;;;;;;;;;4925659;29;19915;-96
2022/07/06 02:59:33;;;;;;;;;;;;;;;;;;4970654;28;19914;-95
2022/07/06 03:02:09;;;;;;;;;;;;;;;;;;4950745;29;19921;-95
2022/07/06 03:05:15;;;;;;;;;;;;;;;;;;4971225;29;19923;-96
2022/07/06 03:07:59;;;;;;;;;;;;;;;;;;4992857;28;19922;-94
2022/07/06 03:10:45;;;;;;;;;;;;;;;;;;4980438;28;19902;-93
2022/07/06 03:13:51;;;;;;;;;;;;;;;;;;4997691;28;19918;-92
2022/07/06 03:16:44;;;;;;;;;;;;;;;;;;5262662;23;19941;-93
2022/07/06 03:19:24;;;;;;;;;;;;;;;;;;4943227;28;19918;-92
2022/07/06 03:25:10;;;;;;;;;;;;;;;;;;4979755;28;19937;-93
2022/07/06 03:28:09;;;;;;;;;;;;;;;;;;4968337;28;19925;-91
2022/07/06 03:31:13;;;;;;;;;;;;;;;;;;4952637;28;19915;-92
2022/07/06 03:34:11;;;;;;;;;;;;;;;;;;4967713;28;19937;-92
2022/07/06 03:37:03;;;;;;;;;;;;;;;;;;4966345;28;19906;-90
2022/07/06 03:40:12;;;;;;;;;;;;;;;;;;4968394;28;19957;-91
2022/07/06 03:43:17;;;;;;;;;;;;;;;;;;;;;
2022/07/06 03:46:34;;;;;;;;;;;;;;;;;;4984257;28;19914;-91
2022/07/06 03:49:11;;;;;;;;;;;;;;;;;;4952770;28;19905;-92
2022/07/06 03:51:58;;;;;;;;;;;;;;;;;;4941969;28;19914;-93
2022/07/06 03:58:25;;;;;;;;;;;;;;;;;;4930742;29;19935;-94
2022/07/06 04:00:57;;;;;;;;;;;;;;;;;;4964840;28;19954;-92
2022/07/06 04:03:50;;;;;;;;;;;;;;;;;;4970365;28;19918;-92
2022/07/06 04:06:24;;;;;;;;;;;;;;;;;;4963919;29;19922;-93
2022/07/06 04:08:56;;;;;;;;;;;;;;;;;;4947553;28;19921;-92
2022/07/06 04:11:24;;;;;;;;;;;;;;;;;;4944581;28;19932;-94
2022/07/06 04:13:56;;;;;;;;;;;;;;;;;;4962644;28;19899;-93
2022/07/06 04:16:29;;;;;;;;;;;;;;;;;;4948116;28;19922;-92
2022/07/06 04:19:12;;;;;;;;;;;;;;;;;;4953935;28;19929;-93
2022/07/06 04:22:06;;;;;;;;;;;;;;;;;;4969034;28;19909;-92
2022/07/06 04:24:38;;;;;;;;;;;;;;;;;;4967593;28;19918;-94
2022/07/06 04:30:48;;;;;;;;;;;;;;;;;;4958474;29;19899;-93
2022/07/06 04:33:53;;;;;;;;;;;;;;;;;;4962667;28;19921;-93
2022/07/06 04:36:21;;;;;;;;;;;;;;;;;;4947716;28;19928;-92
2022/07/06 04:38:50;;;;;;;;;;;;;;;;;;4960641;28;19915;-92
2022/07/06 04:44:15;;;;;;;;;;;;;;;;;;4976303;28;19924;-92
2022/07/06 04:47:14;;;;;;;;;;;;;;;;;;4966769;28;19914;-91
2022/07/06 04:49:59;;;;;;;;;;;;;;;;;;4965489;28;19914;-92
2022/07/06 04:52:51;;;;;;;;;;;;;;;;;;4996683;28;19973;-93
2022/07/06 04:56:07;;;;;;;;;;;;;;;;;;4970626;28;19922;-91
2022/07/06 04:58:42;;;;;;;;;;;;;;;;;;4989144;28;19925;-93
2022/07/06 05:01:13;;;;;;;;;;;;;;;;;;4977153;28;19921;-93
2022/07/06 05:03:54;;;;;;;;;;;;;;;;;;4990496;28;19921;-92
2022/07/06 05:10:07;;;;;;;;;;;;;;;;;;4978613;28;19922;-91
2022/07/06 05:13:13;;;;;;;;;;;;;;;;;;4960353;29;19907;-90
2022/07/06 05:19:35;;;;;;;;;;;;;;;;;;;;;
2022/07/06 05:43:40;;;;;;;;;;;;;;;;;;4975573;28;19946;-92
2022/07/06 05:46:47;;;;;;;;;;;;;;;;;;4979051;28;19922;-91
2022/07/06 05:52:38;;;;;;;;;;;;;;;;;;5655205;23;19910;-92
2022/07/06 05:55:27;;;;;;;;;;;;;;;;;;5199960;23;19980;-90
2022/07/06 05:58:00;;;;;;;;;;;;;;;;;;5000498;28;20626;-94
2022/07/06 06:06:31;;;;;;;;;;;;;;;;;;;;;
2022/07/06 06:12:50;;;;;;;;;;;;;;;;;;;;;
2022/07/06 06:15:42;;;;;;;;;;;;;;;;;;4968610;28;20032;-94
2022/07/06 06:18:41;;;;;;;;;;;;;;;;;;4947834;28;19926;-94
2022/07/06 06:21:27;;;;;;;;;;;;;;;;;;4979227;28;19957;-95
2022/07/06 06:24:20;;;;;;;;;;;;;;;;;;4969770;28;19907;-94
2022/07/06 06:26:48;;;;;;;;;;;;;;;;;;4943815;29;19930;-95
2022/07/06 06:29:59;;;;;;;;;;;;;;;;;;;;;
2022/07/06 06:33:08;;;;;;;;;;;;;;;;;;4978275;28;19942;-95
2022/07/06 06:35:39;;;;;;;;;;;;;;;;;;4976604;28;19923;-94
2022/07/06 06:38:30;;;;;;;;;;;;;;;;;;;;;
2022/07/06 06:41:18;;;;;;;;;;;;;;;;;;4939873;29;19915;-94
2022/07/06 06:43:59;;;;;;;;;;;;;;;;;;4970403;29;19946;-95
2022/07/06 06:46:28;;;;;;;;;;;;;;;;;;4958961;28;19914;-93
2022/07/06 06:49:28;;;;;;;;;;;;;;;;;;4958488;29;19910;-92
2022/07/06 06:52:06;;;;;;;;;;;;;;;;;;4959314;29;19914;-93
2022/07/06 06:54:52;;;;;;;;;;;;;;;;;;4976920;29;20001;-93
2022/07/06 06:57:41;;;;;;;;;;;;;;;;;;4960639;29;19938;-92
2022/07/06 07:00:38;;;;;;;;;;;;;;;;;;4954516;29;19967;-93
2022/07/06 07:07:32;;;;;;;;;;;;;;;;;;;;;
2022/07/06 07:10:49;;;;;;;;;;;;;;;;;;4915179;29;19915;-90
2022/07/06 07:13:56;;;;;;;;;;;;;;;;;;4946661;29;19918;-94
2022/07/06 07:19:34;;;;;;;;;;;;;;;;;;4953545;29;19914;-92
2022/07/06 07:21:59;;;;;;;;;;;;;;;;;;4949130;29;19914;-93
2022/07/06 07:24:41;;;;;;;;;;;;;;;;;;;;;
2022/07/06 07:27:52;;;;;;;;;;;;;;;;;;4954648;29;19922;-91
2022/07/06 07:30:26;;;;;;;;;;;;;;;;;;4953074;29;20118;-93
2022/07/06 07:33:00;;;;;;;;;;;;;;;;;;4952685;29;19982;-94
2022/07/06 07:35:36;;;;;;;;;;;;;;;;;;4936589;29;19923;-93
2022/07/06 07:38:24;;;;;;;;;;;;;;;;;;4934312;29;19915;-95
2022/07/06 07:41:18;;;;;;;;;;;;;;;;;;4937303;29;19925;-92
2022/07/06 07:43:47;;;;;;;;;;;;;;;;;;4936121;29;20300;-92
2022/07/06 07:46:20;;;;;;;;;;;;;;;;;;4947681;29;19962;-92
2022/07/06 07:48:46;;;;;;;;;;;;;;;;;;4935025;29;19914;-95
2022/07/06 07:51:12;;;;;;;;;;;;;;;;;;4931700;29;20002;-94
2022/07/06 07:53:49;;;;;;;;;;;;;;;;;;4933792;29;19917;-93
2022/07/06 07:56:18;;;;;;;;;;;;;;;;;;4950971;29;19926;-91
2022/07/06 07:58:48;;;;;;;;;;;;;;;;;;4936361;29;19919;-93
2022/07/06 08:01:37;;;;;;;;;;;;;;;;;;4947970;29;19923;-92
2022/07/06 08:04:11;;;;;;;;;;;;;;;;;;4945030;29;19961;-93
2022/07/06 08:06:50;;;;;;;;;;;;;;;;;;4945608;29;19914;-94
2022/07/06 08:25:53;;;;;;;;;;;;;;;;;;5008251;23;19975;-89
2022/07/06 08:28:19;;;;;;;;;;;;;;;;;;4943277;29;20341;-92
2022/07/06 08:30:45;;;;;;;;;;;;;;;;;;4964949;28;19914;-88
2022/07/06 08:33:10;;;;;;;;;;;;;;;;;;4966718;28;19914;-89
2022/07/06 08:35:38;;;;;;;;;;;;;;;;;;4969312;28;20164;-90
2022/07/06 08:38:04;;;;;;;;;;;;;;;;;;4964338;28;19915;-88
2022/07/06 08:40:29;;;;;;;;;;;;;;;;;;4960951;28;19998;-89
2022/07/06 08:42:58;;;;;;;;;;;;;;;;;;4925051;29;19914;-89
2022/07/06 08:45:23;;;;;;;;;;;;;;;;;;4957159;28;20242;-89
2022/07/06 08:47:49;;;;;;;;;;;;;;;;;;4940456;29;20007;-88
2022/07/06 08:50:14;;;;;;;;;;;;;;;;;;4939646;29;19915;-89
2022/07/06 08:52:40;;;;;;;;;;;;;;;;;;4956349;28;19914;-88
2022/07/06 08:55:07;;;;;;;;;;;;;;;;;;4938415;29;19958;-86
2022/07/06 08:57:33;;;;;;;;;;;;;;;;;;4938305;29;20378;-87
2022/07/06 08:59:58;;;;;;;;;;;;;;;;;;4956324;28;19921;-89
2022/07/06 09:02:29;;;;;;;;;;;;;;;;;;4956131;28;20436;-88
2022/07/06 09:04:58;;;;;;;;;;;;;;;;;;4938643;29;19919;-89
2022/07/06 09:07:23;;;;;;;;;;;;;;;;;;4956340;28;19956;-88
2022/07/06 09:09:54;;;;;;;;;;;;;;;;;;4956574;28;19918;-89
2022/07/06 09:12:19;;;;;;;;;;;;;;;;;;4921720;29;19914;-90
2022/07/06 09:14:47;;;;;;;;;;;;;;;;;;4923783;29;20389;-89
2022/07/06 09:17:13;;;;;;;;;;;;;;;;;;4955575;28;20370;-85
2022/07/06 09:19:41;;;;;;;;;;;;;;;;;;4955790;28;19918;-86
2022/07/06 09:22:07;;;;;;;;;;;;;;;;;;4937942;29;19914;-88
2022/07/06 09:24:35;;;;;;;;;;;;;;;;;;4938449;29;19911;-88
2022/07/06 09:27:11;;;;;;;;;;;;;;;;;;;;;
2022/07/06 09:29:40;;;;;;;;;;;;;;;;;;4941625;29;19987;-90
2022/07/06 09:32:14;;;;;;;;;;;;;;;;;;4923780;29;19921;-86
2022/07/06 09:35:17;;;;;;;;;;;;;;;;;;4927052;29;19918;-87
2022/07/06 09:37:43;;;;;;;;;;;;;;;;;;4923839;29;19925;-87
2022/07/06 09:40:14;;;;;;;;;;;;;;;;;;4924424;29;20009;-87
2022/07/06 09:42:43;;;;;;;;;;;;;;;;;;4924006;29;19915;-88
2022/07/06 09:45:09;;;;;;;;;;;;;;;;;;4955426;28;20522;-88
2022/07/06 09:47:34;;;;;;;;;;;;;;;;;;4932624;29;19954;-89
2022/07/06 09:50:00;;;;;;;;;;;;;;;;;;4967816;28;19915;-89
2022/07/06 09:52:26;;;;;;;;;;;;;;;;;;4948239;29;19972;-89
2022/07/06 09:54:51;;;;;;;;;;;;;;;;;;4935102;29;19925;-88
2022/07/06 09:57:19;;;;;;;;;;;;;;;;;;4965413;28;19915;-86
2022/07/06 09:59:45;;;;;;;;;;;;;;;;;;4922381;29;19914;-86
2022/07/06 10:02:13;;;;;;;;;;;;;;;;;;4938570;29;19911;-85
2022/07/06 10:04:39;;;;;;;;;;;;;;;;;;4926478;29;20016;-86
2022/07/06 10:07:04;;;;;;;;;;;;;;;;;;4959087;28;19926;-86
2022/07/06 10:09:29;;;;;;;;;;;;;;;;;;4938941;29;20333;-87
2022/07/06 10:11:57;;;;;;;;;;;;;;;;;;4938770;29;19911;-87
2022/07/06 10:14:23;;;;;;;;;;;;;;;;;;4937808;29;19914;-86
2022/07/06 10:16:49;;;;;;;;;;;;;;;;;;4905510;29;20009;-87
2022/07/06 10:19:18;;;;;;;;;;;;;;;;;;4922821;29;19957;-88
2022/07/06 10:21:46;;;;;;;;;;;;;;;;;;4938684;29;19911;-86
2022/07/06 10:24:12;;;;;;;;;;;;;;;;;;4939553;29;19930;-85
2022/07/06 10:26:38;;;;;;;;;;;;;;;;;;4958294;28;19918;-84
2022/07/06 10:29:03;;;;;;;;;;;;;;;;;;4925339;29;19911;-85
2022/07/06 10:31:29;;;;;;;;;;;;;;;;;;4940915;29;19926;-85
2022/07/06 10:33:54;;;;;;;;;;;;;;;;;;4941176;29;20005;-84
2022/07/06 10:36:20;;;;;;;;;;;;;;;;;;4958318;29;19941;-85
2022/07/06 10:38:45;;;;;;;;;;;;;;;;;;4957854;29;19915;-86
2022/07/06 10:41:13;;;;;;;;;;;;;;;;;;4957891;28;19997;-86
2022/07/06 10:43:38;;;;;;;;;;;;;;;;;;4957488;28;20397;-86
2022/07/06 10:46:03;;;;;;;;;;;;;;;;;;4957788;29;19962;-85
2022/07/06 10:48:29;;;;;;;;;;;;;;;;;;4924946;29;19990;-85
2022/07/06 10:50:55;;;;;;;;;;;;;;;;;;4940507;28;19915;-84
2022/07/06 10:53:20;;;;;;;;;;;;;;;;;;4940780;29;19934;-86
2022/07/06 10:55:50;;;;;;;;;;;;;;;;;;4958417;29;20455;-84
2022/07/06 10:58:16;;;;;;;;;;;;;;;;;;4940916;29;19921;-85
2022/07/06 11:00:41;;;;;;;;;;;;;;;;;;4940612;29;19910;-85
2022/07/06 11:03:06;;;;;;;;;;;;;;;;;;4958816;29;19963;-84
2022/07/06 11:05:32;;;;;;;;;;;;;;;;;;4958147;28;19920;-85
2022/07/06 11:07:57;;;;;;;;;;;;;;;;;;4940772;29;20318;-86
2022/07/06 11:10:23;;;;;;;;;;;;;;;;;;4940745;29;19929;-85
2022/07/06 11:12:48;;;;;;;;;;;;;;;;;;4941297;29;19914;-86
2022/07/06 11:15:14;;;;;;;;;;;;;;;;;;4959091;29;19922;-85
2022/07/06 11:17:42;;;;;;;;;;;;;;;;;;4925480;29;19921;-86
2022/07/06 11:20:10;;;;;;;;;;;;;;;;;;4925830;29;19915;-86
2022/07/06 11:22:36;;;;;;;;;;;;;;;;;;4958186;28;19923;-85
2022/07/06 11:25:01;;;;;;;;;;;;;;;;;;4924592;29;20353;-85
2022/07/06 11:27:27;;;;;;;;;;;;;;;;;;4940778;29;20401;-86
2022/07/06 11:29:52;;;;;;;;;;;;;;;;;;4957755;29;20334;-86
2022/07/06 11:32:18;;;;;;;;;;;;;;;;;;4957987;28;19914;-85
2022/07/06 11:34:43;;;;;;;;;;;;;;;;;;4939699;29;19950;-85
2022/07/06 11:37:09;;;;;;;;;;;;;;;;;;4925317;29;20449;-84
2022/07/06 11:39:35;;;;;;;;;;;;;;;;;;4927359;29;19915;-85
2022/07/06 11:42:00;;;;;;;;;;;;;;;;;;4943756;29;19910;-84
2022/07/06 11:44:26;;;;;;;;;;;;;;;;;;4962596;28;19934;-85
2022/07/06 11:46:51;;;;;;;;;;;;;;;;;;4933876;29;20389;-86
2022/07/06 11:49:17;;;;;;;;;;;;;;;;;;4948177;29;19914;-84
2022/07/06 11:51:45;;;;;;;;;;;;;;;;;;4945236;29;20391;-85
2022/07/06 11:54:11;;;;;;;;;;;;;;;;;;4949540;29;19921;-83
2022/07/06 11:56:41;;;;;;;;;;;;;;;;;;4946303;29;20385;-84
2022/07/06 11:59:06;;;;;;;;;;;;;;;;;;4936541;29;19914;-84
2022/07/06 12:01:32;;;;;;;;;;;;;;;;;;4922817;29;19925;-83
2022/07/06 12:03:57;;;;;;;;;;;;;;;;;;4950158;29;19911;-84
2022/07/06 12:06:23;;;;;;;;;;;;;;;;;;4968941;29;19914;-85
2022/07/06 12:08:48;;;;;;;;;;;;;;;;;;4942431;29;19902;-87
2022/07/06 12:11:14;;;;;;;;;;;;;;;;;;4957716;29;19921;-85
2022/07/06 12:13:39;;;;;;;;;;;;;;;;;;4928357;29;19915;-88
2022/07/06 12:16:05;;;;;;;;;;;;;;;;;;4940767;29;19911;-85
2022/07/06 12:18:30;;;;;;;;;;;;;;;;;;4929774;29;19970;-88
2022/07/06 12:20:56;;;;;;;;;;;;;;;;;;4959770;28;19922;-87
2022/07/06 12:23:21;;;;;;;;;;;;;;;;;;4926756;29;20293;-86
2022/07/06 12:25:48;;;;;;;;;;;;;;;;;;4940749;29;20321;-85
2022/07/06 12:28:13;;;;;;;;;;;;;;;;;;4925405;29;20007;-87
2022/07/06 12:30:39;;;;;;;;;;;;;;;;;;4960908;29;20370;-86
2022/07/06 12:33:04;;;;;;;;;;;;;;;;;;4957914;28;19914;-87
2022/07/06 12:35:30;;;;;;;;;;;;;;;;;;4940777;29;19915;-86
2022/07/06 12:37:57;;;;;;;;;;;;;;;;;;4945388;29;20142;-87
2022/07/06 12:40:24;;;;;;;;;;;;;;;;;;4924480;29;19918;-88
2022/07/06 12:42:50;;;;;;;;;;;;;;;;;;4923756;29;19922;-87
2022/07/06 12:45:15;;;;;;;;;;;;;;;;;;4924609;29;19924;-88
2022/07/06 12:47:42;;;;;;;;;;;;;;;;;;4956048;28;20444;-87
2022/07/06 12:50:08;;;;;;;;;;;;;;;;;;4938576;29;20396;-88
2022/07/06 12:52:33;;;;;;;;;;;;;;;;;;4938202;29;19918;-87
2022/07/06 12:54:59;;;;;;;;;;;;;;;;;;4922721;29;19915;-86
2022/07/06 12:57:28;;;;;;;;;;;;;;;;;;4923368;29;19942;-88
2022/07/06 12:59:54;;;;;;;;;;;;;;;;;;4941170;29;20408;-87
2022/07/06 13:02:20;;;;;;;;;;;;;;;;;;4922893;29;19915;-85
2022/07/06 13:04:48;;;;;;;;;;;;;;;;;;4955455;29;19915;-86
2022/07/06 13:07:15;;;;;;;;;;;;;;;;;;4923996;29;19915;-86
2022/07/06 13:09:40;;;;;;;;;;;;;;;;;;4923112;29;20313;-87
2022/07/06 13:12:06;;;;;;;;;;;;;;;;;;4922330;29;19922;-86
2022/07/06 13:14:31;;;;;;;;;;;;;;;;;;4922557;29;19926;-86
2022/07/06 13:16:57;;;;;;;;;;;;;;;;;;4938420;29;20108;-85
2022/07/06 13:19:22;;;;;;;;;;;;;;;;;;4923183;29;20281;-85
2022/07/06 13:21:48;;;;;;;;;;;;;;;;;;4924057;29;20292;-86
2022/07/06 13:24:13;;;;;;;;;;;;;;;;;;4938235;29;19921;-86
2022/07/06 13:26:39;;;;;;;;;;;;;;;;;;4938929;29;19925;-85
2022/07/06 13:29:04;;;;;;;;;;;;;;;;;;4938079;29;20342;-86
2022/07/06 13:31:30;;;;;;;;;;;;;;;;;;4939243;29;20336;-85
2022/07/06 13:33:55;;;;;;;;;;;;;;;;;;4922126;29;19918;-87
2022/07/06 13:36:21;;;;;;;;;;;;;;;;;;4921407;29;20267;-86
2022/07/06 13:38:46;;;;;;;;;;;;;;;;;;4921791;29;19946;-86
2022/07/06 13:41:12;;;;;;;;;;;;;;;;;;4921331;29;20128;-88
2022/07/06 13:43:37;;;;;;;;;;;;;;;;;;4954827;28;20289;-86
2022/07/06 13:46:03;;;;;;;;;;;;;;;;;;4955254;29;20289;-85
2022/07/06 13:48:28;;;;;;;;;;;;;;;;;;4937665;29;20013;-85
2022/07/06 13:50:54;;;;;;;;;;;;;;;;;;4954528;28;20293;-86
2022/07/06 13:53:19;;;;;;;;;;;;;;;;;;4921459;29;19914;-87
2022/07/06 13:55:44;;;;;;;;;;;;;;;;;;4954243;28;19915;-87
2022/07/06 13:58:10;;;;;;;;;;;;;;;;;;4954137;28;20270;-87
2022/07/06 14:00:35;;;;;;;;;;;;;;;;;;4937606;29;19925;-88
2022/07/06 14:03:01;;;;;;;;;;;;;;;;;;4937396;29;20008;-85
2022/07/06 14:05:26;;;;;;;;;;;;;;;;;;4937744;29;19922;-86
2022/07/06 14:07:55;;;;;;;;;;;;;;;;;;4922347;29;19914;-87
2022/07/06 14:10:20;;;;;;;;;;;;;;;;;;4921626;29;20481;-86
2022/07/06 14:12:48;;;;;;;;;;;;;;;;;;4936871;29;19914;-85
2022/07/06 14:15:14;;;;;;;;;;;;;;;;;;4938117;29;20013;-91
2022/07/06 14:17:39;;;;;;;;;;;;;;;;;;4939579;29;19950;-91
2022/07/06 14:20:05;;;;;;;;;;;;;;;;;;4924531;29;19937;-90
2022/07/06 14:22:30;;;;;;;;;;;;;;;;;;4909439;29;19915;-90
2022/07/06 14:24:55;;;;;;;;;;;;;;;;;;4924217;29;19933;-90
2022/07/06 14:27:21;;;;;;;;;;;;;;;;;;4924110;29;20016;-92
2022/07/06 14:29:46;;;;;;;;;;;;;;;;;;4923726;29;20342;-90
2022/07/06 14:32:12;;;;;;;;;;;;;;;;;;4923105;29;19922;-91
2022/07/06 14:34:37;;;;;;;;;;;;;;;;;;4923109;29;19982;-91
2022/07/06 14:37:03;;;;;;;;;;;;;;;;;;4924725;29;20341;-90
2022/07/06 14:39:29;;;;;;;;;;;;;;;;;;4927295;29;19910;-90
2022/07/06 14:41:54;;;;;;;;;;;;;;;;;;4925133;29;20025;-92
2022/07/06 14:44:20;;;;;;;;;;;;;;;;;;4925729;29;20386;-93
2022/07/06 14:46:45;;;;;;;;;;;;;;;;;;4925944;29;19918;-90
2022/07/06 14:49:13;;;;;;;;;;;;;;;;;;4927289;29;19914;-92
2022/07/06 14:51:39;;;;;;;;;;;;;;;;;;4925626;29;19925;-90
2022/07/06 14:54:05;;;;;;;;;;;;;;;;;;4926449;29;19922;-92
2022/07/06 14:56:31;;;;;;;;;;;;;;;;;;4926661;29;19989;-92
2022/07/06 14:58:57;;;;;;;;;;;;;;;;;;4927939;29;19914;-91
2022/07/06 15:01:22;;;;;;;;;;;;;;;;;;4926886;29;19921;-93
2022/07/06 15:03:50;;;;;;;;;;;;;;;;;;4928042;29;19921;-90
2022/07/06 15:06:16;;;;;;;;;;;;;;;;;;4929793;29;19958;-92
2022/07/06 15:08:42;;;;;;;;;;;;;;;;;;4929824;28;19914;-92
2022/07/06 15:11:19;;;;;;;;;;;;;;;;;;4937500;29;20005;-91
2022/07/06 15:13:47;;;;;;;;;;;;;;;;;;4944969;28;19923;-91
2022/07/06 15:16:13;;;;;;;;;;;;;;;;;;4962316;28;19906;-90
2022/07/06 15:18:44;;;;;;;;;;;;;;;;;;5072999;23;19921;-89
2022/07/06 15:21:10;;;;;;;;;;;;;;;;;;4985989;28;19938;-88
2022/07/06 15:23:35;;;;;;;;;;;;;;;;;;4962922;28;19997;-89
2022/07/06 15:26:22;;;;;;;;;;;;;;;;;;4973227;28;19915;-87
2022/07/06 15:28:46;;;;;;;;;;;;;;;;;;4957263;28;20100;-88
2022/07/06 15:31:31;;;;;;;;;;;;;;;;;;4957013;28;20349;-90
2022/07/06 15:34:23;;;;;;;;;;;;;;;;;;;;;
2022/07/06 15:36:56;;;;;;;;;;;;;;;;;;4958461;28;19922;-87
2022/07/06 15:42:19;;;;;;;;;;;;;;;;;;4941103;28;19922;-89
2022/07/06 15:47:59;;;;;;;;;;;;;;;;;;4946178;28;19918;-89
2022/07/06 15:50:27;;;;;;;;;;;;;;;;;;4973642;28;19914;-88
2022/07/06 15:52:58;;;;;;;;;;;;;;;;;;4961144;28;19917;-90
2022/07/06 15:58:48;;;;;;;;;;;;;;;;;;4962313;29;19921;-90
2022/07/06 16:01:16;;;;;;;;;;;;;;;;;;4956446;28;19921;-87
2022/07/06 16:07:26;;;;;;;;;;;;;;;;;;4938842;29;19954;-89
2022/07/06 16:10:40;;;;;;;;;;;;;;;;;;4910026;29;19923;-92
2022/07/06 16:24:41;;;;;;;;;;;;;;;;;;;;;
2022/07/06 16:35:47;;;;;;;;;;;;;;;;;;;;;
2022/07/06 16:39:37;;;;;;;;;;;;;;;;;;4758874;30;20425;-94
2022/07/06 16:42:52;;;;;;;;;;;;;;;;;;4758126;30;20437;-93
2022/07/06 17:03:08;;;;;;;;;;;;;;;;;;4741641;30;20385;-89
2022/07/06 17:05:56;;;;;;;;;;;;;;;;;;4736607;30;20578;-89
2022/07/06 17:08:26;;;;;;;;;;;;;;;;;;4737231;30;19925;-85
2022/07/06 17:10:51;;;;;;;;;;;;;;;;;;4736359;30;20382;-87
2022/07/06 17:13:17;;;;;;;;;;;;;;;;;;4767829;30;19940;-85
2022/07/06 17:15:42;;;;;;;;;;;;;;;;;;4788368;29;19943;-85
2022/07/06 17:18:17;;;;;;;;;;;;;;;;;;4804502;29;19921;-85
2022/07/06 17:20:45;;;;;;;;;;;;;;;;;;4804087;29;19921;-86
2022/07/06 17:23:22;;;;;;;;;;;;;;;;;;4805032;29;20309;-84
2022/07/06 17:25:48;;;;;;;;;;;;;;;;;;4805343;29;19925;-85
2022/07/06 17:28:14;;;;;;;;;;;;;;;;;;4804997;29;19956;-86
2022/07/06 17:30:39;;;;;;;;;;;;;;;;;;4804376;29;19973;-85
2022/07/06 17:33:05;;;;;;;;;;;;;;;;;;4820279;29;19996;-85
2022/07/06 17:35:32;;;;;;;;;;;;;;;;;;4852624;29;20409;-85
2022/07/06 17:37:57;;;;;;;;;;;;;;;;;;4883336;29;20035;-85
2022/07/06 17:40:23;;;;;;;;;;;;;;;;;;4942077;28;19974;-86
2022/07/06 17:42:48;;;;;;;;;;;;;;;;;;4956479;28;20265;-84
2022/07/06 17:45:17;;;;;;;;;;;;;;;;;;4955290;29;19914;-86
2022/07/06 17:47:43;;;;;;;;;;;;;;;;;;4955545;29;19921;-84
2022/07/06 17:50:08;;;;;;;;;;;;;;;;;;4956038;29;20278;-87
2022/07/06 17:52:35;;;;;;;;;;;;;;;;;;4957804;28;19914;-84
2022/07/06 17:55:03;;;;;;;;;;;;;;;;;;4942016;29;19915;-85
2022/07/06 17:57:31;;;;;;;;;;;;;;;;;;4958683;29;19982;-84
2022/07/06 17:59:59;;;;;;;;;;;;;;;;;;4964872;28;19922;-84
2022/07/06 18:02:25;;;;;;;;;;;;;;;;;;4964849;28;20452;-86
2022/07/06 18:04:52;;;;;;;;;;;;;;;;;;4965692;29;19918;-87
2022/07/06 18:07:18;;;;;;;;;;;;;;;;;;4982675;28;19978;-85
2022/07/06 18:09:43;;;;;;;;;;;;;;;;;;4961802;28;19957;-86
2022/07/06 18:12:09;;;;;;;;;;;;;;;;;;4940777;29;20314;-85
2022/07/06 18:14:34;;;;;;;;;;;;;;;;;;4955318;28;19914;-85
2022/07/06 18:17:00;;;;;;;;;;;;;;;;;;4954513;28;19926;-87
2022/07/06 18:19:25;;;;;;;;;;;;;;;;;;4954356;28;19969;-87
2022/07/06 18:21:51;;;;;;;;;;;;;;;;;;4954725;28;19915;-87
2022/07/06 18:24:16;;;;;;;;;;;;;;;;;;4955471;28;19994;-86
2022/07/06 18:26:42;;;;;;;;;;;;;;;;;;4954413;29;19910;-86
2022/07/06 18:29:09;;;;;;;;;;;;;;;;;;4939775;29;19930;-85
2022/07/06 18:31:34;;;;;;;;;;;;;;;;;;4977511;28;19915;-87
2022/07/06 18:34:02;;;;;;;;;;;;;;;;;;4975258;28;19922;-88
2022/07/06 18:36:34;;;;;;;;;;;;;;;;;;4975820;29;19923;-91
2022/07/06 20:17:07;;;;;;;;;;;;;;;;;;5495574;23;20037;-82
2022/07/06 20:19:35;;;;;;;;;;;;;;;;;;4956431;29;19962;-83
2022/07/06 20:22:00;;;;;;;;;;;;;;;;;;4939257;29;20387;-82
2022/07/06 20:24:28;;;;;;;;;;;;;;;;;;4939575;29;19965;-83
2022/07/06 20:29:46;;;;;;;;;;;;;;;;;;4954088;29;20005;-83
2022/07/06 20:32:11;;;;;;;;;;;;;;;;;;4938913;29;20405;-83
2022/07/06 20:34:38;;;;;;;;;;;;;;;;;;4907438;29;19969;-82
2022/07/06 20:37:03;;;;;;;;;;;;;;;;;;4938723;29;19957;-83
2022/07/06 20:39:29;;;;;;;;;;;;;;;;;;4956075;29;19970;-83
2022/07/06 20:41:54;;;;;;;;;;;;;;;;;;4938870;29;20324;-83
2022/07/06 20:44:21;;;;;;;;;;;;;;;;;;4938519;29;19914;-83
2022/07/06 20:46:46;;;;;;;;;;;;;;;;;;4938501;29;20010;-83
2022/07/06 20:49:12;;;;;;;;;;;;;;;;;;4938766;29;19966;-84
2022/07/06 20:51:37;;;;;;;;;;;;;;;;;;4938560;29;20374;-84
2022/07/06 20:54:02;;;;;;;;;;;;;;;;;;4955501;29;19914;-83
2022/07/06 20:56:28;;;;;;;;;;;;;;;;;;4955623;28;19918;-83
2022/07/06 20:58:56;;;;;;;;;;;;;;;;;;4907055;29;19914;-84
2022/07/06 21:01:21;;;;;;;;;;;;;;;;;;4923859;29;19930;-83
2022/07/06 21:03:46;;;;;;;;;;;;;;;;;;4955600;29;20437;-83
2022/07/06 21:06:12;;;;;;;;;;;;;;;;;;4955799;28;20408;-83
2022/07/06 21:08:37;;;;;;;;;;;;;;;;;;4938536;29;19915;-84
2022/07/06 21:11:03;;;;;;;;;;;;;;;;;;4955717;29;19978;-84
2022/07/06 21:13:28;;;;;;;;;;;;;;;;;;4938191;29;19921;-84
2022/07/06 21:15:53;;;;;;;;;;;;;;;;;;4938040;28;20441;-84
2022/07/06 21:18:19;;;;;;;;;;;;;;;;;;4955372;29;19921;-84
2022/07/06 21:20:44;;;;;;;;;;;;;;;;;;4955614;29;20366;-84
2022/07/06 21:23:09;;;;;;;;;;;;;;;;;;4956719;29;19915;-84
2022/07/06 21:25:35;;;;;;;;;;;;;;;;;;4939532;29;19914;-84
2022/07/06 21:28:00;;;;;;;;;;;;;;;;;;4939206;29;20366;-83
2022/07/06 21:30:26;;;;;;;;;;;;;;;;;;4937882;29;20285;-83
2022/07/06 21:32:51;;;;;;;;;;;;;;;;;;4954886;29;19954;-83
2022/07/06 21:35:17;;;;;;;;;;;;;;;;;;4906168;29;19914;-84
2022/07/06 21:37:42;;;;;;;;;;;;;;;;;;4921898;29;20314;-84
2022/07/06 21:40:08;;;;;;;;;;;;;;;;;;4922923;29;19914;-84
2022/07/06 21:42:33;;;;;;;;;;;;;;;;;;4907002;29;20433;-85
2022/07/06 21:44:59;;;;;;;;;;;;;;;;;;4938842;29;20281;-84
2022/07/06 21:47:24;;;;;;;;;;;;;;;;;;4906943;29;20050;-83
2022/07/06 21:49:50;;;;;;;;;;;;;;;;;;4924117;29;19921;-82